sensor_id;sensor_type;location;lat;lon;timestamp;pressure;altitude;pressure_sealevel;temperature;humidity
53754;BME280;39667;52.274;20.964;2022-09-17T00:01:13;99059.35;;;10.27;71.59
53754;BME280;39667;52.274;20.964;2022-09-17T00:03:41;99051.08;;;10.27;71.71
53754;BME280;39667;52.274;20.964;2022-09-17T00:06:10;99056.89;;;10.33;71.62
53754;BME280;39667;52.274;20.964;2022-09-17T00:08:39;99055.03;;;10.36;71.52
53754;BME280;39667;52.274;20.964;2022-09-17T00:11:13;99059.00;;;10.39;71.47
53754;BME280;39667;52.274;20.964;2022-09-17T00:13:42;99061.36;;;10.43;71.41
53754;BME280;39667;52.274;20.964;2022-09-17T00:16:10;99056.72;;;10.45;71.39
53754;BME280;39667;52.274;20.964;2022-09-17T00:18:38;99060.38;;;10.47;71.31
53754;BME280;39667;52.274;20.964;2022-09-17T00:21:15;99058.96;;;10.47;71.30
53754;BME280;39667;52.274;20.964;2022-09-17T00:23:43;99056.50;;;10.48;71.19
53754;BME280;39667;52.274;20.964;2022-09-17T00:26:10;99054.41;;;10.46;71.26
53754;BME280;39667;52.274;20.964;2022-09-17T00:28:37;99056.05;;;10.44;71.30
53754;BME280;39667;52.274;20.964;2022-09-17T00:31:08;99054.85;;;10.43;71.38
53754;BME280;39667;52.274;20.964;2022-09-17T00:33:35;99062.77;;;10.43;71.33
53754;BME280;39667;52.274;20.964;2022-09-17T00:36:03;99056.45;;;10.42;71.33
53754;BME280;39667;52.274;20.964;2022-09-17T00:38:31;99060.72;;;10.40;71.36
53754;BME280;39667;52.274;20.964;2022-09-17T00:40:59;99057.76;;;10.39;71.24
53754;BME280;39667;52.274;20.964;2022-09-17T00:43:47;99063.48;;;10.42;71.30
53754;BME280;39667;52.274;20.964;2022-09-17T00:46:42;99063.86;;;10.42;71.26
53754;BME280;39667;52.274;20.964;2022-09-17T00:49:16;99068.64;;;10.40;71.26
53754;BME280;39667;52.274;20.964;2022-09-17T00:52:10;99070.82;;;10.38;71.23
53754;BME280;39667;52.274;20.964;2022-09-17T00:54:40;99071.36;;;10.37;71.29
53754;BME280;39667;52.274;20.964;2022-09-17T00:57:09;99077.44;;;10.35;71.21
53754;BME280;39667;52.274;20.964;2022-09-17T00:59:36;99077.37;;;10.31;71.33
53754;BME280;39667;52.274;20.964;2022-09-17T01:02:03;99084.11;;;10.28;71.40
53754;BME280;39667;52.274;20.964;2022-09-17T01:04:30;99078.16;;;10.27;71.47
53754;BME280;39667;52.274;20.964;2022-09-17T01:10:02;99073.17;;;10.23;71.49
53754;BME280;39667;52.274;20.964;2022-09-17T01:15:27;99077.73;;;10.18;71.46
53754;BME280;39667;52.274;20.964;2022-09-17T01:32:35;99073.38;;;10.10;71.57
53754;BME280;39667;52.274;20.964;2022-09-17T01:35:12;99068.48;;;10.09;71.51
53754;BME280;39667;52.274;20.964;2022-09-17T01:37:59;99070.26;;;10.08;71.64
53754;BME280;39667;52.274;20.964;2022-09-17T01:43:25;99078.98;;;10.05;71.58
53754;BME280;39667;52.274;20.964;2022-09-17T01:46:08;99076.91;;;10.03;71.67
53754;BME280;39667;52.274;20.964;2022-09-17T01:48:42;99075.36;;;10.02;71.75
53754;BME280;39667;52.274;20.964;2022-09-17T01:51:13;99081.05;;;10.00;71.83
53754;BME280;39667;52.274;20.964;2022-09-17T01:56:21;99080.30;;;9.95;71.91
53754;BME280;39667;52.274;20.964;2022-09-17T01:58:57;99080.84;;;9.95;71.88
53754;BME280;39667;52.274;20.964;2022-09-17T02:01:28;99075.67;;;9.97;71.95
53754;BME280;39667;52.274;20.964;2022-09-17T02:04:22;99074.30;;;9.96;71.86
53754;BME280;39667;52.274;20.964;2022-09-17T02:06:57;99073.48;;;9.94;71.90
53754;BME280;39667;52.274;20.964;2022-09-17T02:09:34;99066.96;;;9.94;71.95
53754;BME280;39667;52.274;20.964;2022-09-17T02:12:05;99071.56;;;9.93;71.83
53754;BME280;39667;52.274;20.964;2022-09-17T02:14:51;99066.22;;;9.89;71.80
53754;BME280;39667;52.274;20.964;2022-09-17T02:19:59;99069.96;;;9.87;71.68
53754;BME280;39667;52.274;20.964;2022-09-17T02:22:33;99068.27;;;9.85;71.73
53754;BME280;39667;52.274;20.964;2022-09-17T02:27:46;99069.30;;;9.78;71.80
53754;BME280;39667;52.274;20.964;2022-09-17T02:30:15;99067.92;;;9.78;71.85
53754;BME280;39667;52.274;20.964;2022-09-17T02:32:42;99070.02;;;9.78;71.81
53754;BME280;39667;52.274;20.964;2022-09-17T02:35:10;99062.80;;;9.79;71.71
53754;BME280;39667;52.274;20.964;2022-09-17T02:37:40;99065.41;;;9.79;71.79
53754;BME280;39667;52.274;20.964;2022-09-17T02:40:12;99065.09;;;9.78;71.67
53754;BME280;39667;52.274;20.964;2022-09-17T02:42:58;99062.10;;;9.72;71.64
53754;BME280;39667;52.274;20.964;2022-09-17T02:48:29;99062.91;;;9.75;71.63
53754;BME280;39667;52.274;20.964;2022-09-17T02:51:12;99060.96;;;9.75;71.60
53754;BME280;39667;52.274;20.964;2022-09-17T02:54:01;99061.63;;;9.71;71.63
53754;BME280;39667;52.274;20.964;2022-09-17T02:59:55;99061.56;;;9.72;71.61
53754;BME280;39667;52.274;20.964;2022-09-17T03:02:40;99059.82;;;9.72;71.53
53754;BME280;39667;52.274;20.964;2022-09-17T03:05:09;99057.60;;;9.70;71.56
53754;BME280;39667;52.274;20.964;2022-09-17T03:07:37;99061.83;;;9.69;71.46
53754;BME280;39667;52.274;20.964;2022-09-17T03:10:04;99064.36;;;9.66;71.56
53754;BME280;39667;52.274;20.964;2022-09-17T03:12:32;99065.67;;;9.63;71.64
53754;BME280;39667;52.274;20.964;2022-09-17T03:14:58;99069.30;;;9.65;71.63
53754;BME280;39667;52.274;20.964;2022-09-17T03:17:25;99063.97;;;9.68;71.80
53754;BME280;39667;52.274;20.964;2022-09-17T03:19:52;99063.44;;;9.69;71.70
53754;BME280;39667;52.274;20.964;2022-09-17T03:22:19;99066.40;;;9.69;71.58
53754;BME280;39667;52.274;20.964;2022-09-17T03:24:45;99060.61;;;9.69;71.57
53754;BME280;39667;52.274;20.964;2022-09-17T03:27:12;99059.65;;;9.65;71.56
53754;BME280;39667;52.274;20.964;2022-09-17T03:29:39;99054.78;;;9.63;71.70
53754;BME280;39667;52.274;20.964;2022-09-17T03:32:06;99059.88;;;9.63;71.68
53754;BME280;39667;52.274;20.964;2022-09-17T03:34:34;99059.48;;;9.65;71.72
53754;BME280;39667;52.274;20.964;2022-09-17T03:37:01;99059.84;;;9.64;71.69
53754;BME280;39667;52.274;20.964;2022-09-17T03:39:28;99055.52;;;9.62;71.68
53754;BME280;39667;52.274;20.964;2022-09-17T03:41:55;99058.20;;;9.60;71.69
53754;BME280;39667;52.274;20.964;2022-09-17T03:44:22;99059.45;;;9.59;71.84
53754;BME280;39667;52.274;20.964;2022-09-17T03:46:49;99057.73;;;9.57;71.82
53754;BME280;39667;52.274;20.964;2022-09-17T03:49:16;99056.95;;;9.54;72.02
53754;BME280;39667;52.274;20.964;2022-09-17T03:51:43;99055.58;;;9.52;72.06
53754;BME280;39667;52.274;20.964;2022-09-17T03:54:11;99055.30;;;9.50;72.02
53754;BME280;39667;52.274;20.964;2022-09-17T03:56:37;99053.91;;;9.49;72.21
53754;BME280;39667;52.274;20.964;2022-09-17T03:59:04;99058.67;;;9.49;72.25
53754;BME280;39667;52.274;20.964;2022-09-17T04:01:31;99054.61;;;9.49;72.35
53754;BME280;39667;52.274;20.964;2022-09-17T04:03:58;99057.65;;;9.47;72.33
53754;BME280;39667;52.274;20.964;2022-09-17T04:06:26;99057.58;;;9.44;72.44
53754;BME280;39667;52.274;20.964;2022-09-17T04:08:52;99048.86;;;9.40;72.53
53754;BME280;39667;52.274;20.964;2022-09-17T04:11:19;99050.46;;;9.39;72.49
53754;BME280;39667;52.274;20.964;2022-09-17T04:13:46;99055.55;;;9.40;72.67
53754;BME280;39667;52.274;20.964;2022-09-17T04:16:13;99051.23;;;9.37;72.59
53754;BME280;39667;52.274;20.964;2022-09-17T04:18:40;99048.23;;;9.37;72.69
53754;BME280;39667;52.274;20.964;2022-09-17T04:21:07;99056.29;;;9.38;72.74
53754;BME280;39667;52.274;20.964;2022-09-17T04:23:34;99054.02;;;9.38;72.73
53754;BME280;39667;52.274;20.964;2022-09-17T04:26:00;99052.32;;;9.36;72.85
53754;BME280;39667;52.274;20.964;2022-09-17T04:28:27;99052.92;;;9.39;72.81
53754;BME280;39667;52.274;20.964;2022-09-17T04:30:54;99056.05;;;9.41;72.77
53754;BME280;39667;52.274;20.964;2022-09-17T04:33:21;99062.59;;;9.39;72.86
53754;BME280;39667;52.274;20.964;2022-09-17T04:35:48;99057.10;;;9.41;72.88
53754;BME280;39667;52.274;20.964;2022-09-17T04:38:15;99066.20;;;9.43;72.73
53754;BME280;39667;52.274;20.964;2022-09-17T04:40:44;99061.41;;;9.45;72.73
53754;BME280;39667;52.274;20.964;2022-09-17T04:43:12;99055.41;;;9.46;72.64
53754;BME280;39667;52.274;20.964;2022-09-17T04:45:39;99060.00;;;9.45;72.65
53754;BME280;39667;52.274;20.964;2022-09-17T04:48:06;99053.48;;;9.46;72.78
53754;BME280;39667;52.274;20.964;2022-09-17T04:50:33;99051.81;;;9.49;72.80
53754;BME280;39667;52.274;20.964;2022-09-17T04:53:00;99054.35;;;9.52;72.79
53754;BME280;39667;52.274;20.964;2022-09-17T04:55:27;99050.30;;;9.53;72.68
53754;BME280;39667;52.274;20.964;2022-09-17T04:57:54;99053.45;;;9.54;72.73
53754;BME280;39667;52.274;20.964;2022-09-17T05:00:21;99056.47;;;9.52;72.77
53754;BME280;39667;52.274;20.964;2022-09-17T05:02:52;99059.16;;;9.50;72.74
53754;BME280;39667;52.274;20.964;2022-09-17T05:05:20;99059.75;;;9.54;72.89
53754;BME280;39667;52.274;20.964;2022-09-17T05:07:47;99060.63;;;9.54;72.90
53754;BME280;39667;52.274;20.964;2022-09-17T05:10:15;99058.67;;;9.55;72.89
53754;BME280;39667;52.274;20.964;2022-09-17T05:12:53;99063.40;;;9.56;72.92
53754;BME280;39667;52.274;20.964;2022-09-17T05:15:22;99058.09;;;9.57;72.88
53754;BME280;39667;52.274;20.964;2022-09-17T05:17:50;99060.86;;;9.59;72.93
53754;BME280;39667;52.274;20.964;2022-09-17T05:20:17;99068.23;;;9.59;72.91
53754;BME280;39667;52.274;20.964;2022-09-17T05:22:48;99072.27;;;9.59;73.01
53754;BME280;39667;52.274;20.964;2022-09-17T05:25:17;99076.11;;;9.61;72.95
53754;BME280;39667;52.274;20.964;2022-09-17T05:27:44;99070.65;;;9.62;73.01
53754;BME280;39667;52.274;20.964;2022-09-17T05:30:11;99081.06;;;9.66;73.08
53754;BME280;39667;52.274;20.964;2022-09-17T05:32:38;99079.63;;;9.74;73.06
53754;BME280;39667;52.274;20.964;2022-09-17T05:35:06;99076.94;;;9.83;72.94
53754;BME280;39667;52.274;20.964;2022-09-17T05:37:33;99071.33;;;9.88;72.67
53754;BME280;39667;52.274;20.964;2022-09-17T05:40:02;99072.52;;;9.90;72.54
53754;BME280;39667;52.274;20.964;2022-09-17T05:42:31;99070.11;;;9.94;72.44
53754;BME280;39667;52.274;20.964;2022-09-17T05:44:58;99067.16;;;9.99;72.36
53754;BME280;39667;52.274;20.964;2022-09-17T05:47:25;99064.94;;;10.04;72.25
53754;BME280;39667;52.274;20.964;2022-09-17T05:49:51;99066.26;;;10.07;72.09
53754;BME280;39667;52.274;20.964;2022-09-17T05:52:18;99060.98;;;10.07;72.17
53754;BME280;39667;52.274;20.964;2022-09-17T05:54:45;99060.55;;;10.10;72.05
53754;BME280;39667;52.274;20.964;2022-09-17T05:57:12;99057.02;;;10.10;72.03
53754;BME280;39667;52.274;20.964;2022-09-17T05:59:39;99057.19;;;10.16;71.91
53754;BME280;39667;52.274;20.964;2022-09-17T06:02:05;99058.99;;;10.21;71.87
53754;BME280;39667;52.274;20.964;2022-09-17T06:04:32;99054.63;;;10.26;71.70
53754;BME280;39667;52.274;20.964;2022-09-17T06:07:04;99047.45;;;10.31;71.49
53754;BME280;39667;52.274;20.964;2022-09-17T06:09:36;99046.42;;;10.36;71.38
53754;BME280;39667;52.274;20.964;2022-09-17T06:12:04;99048.88;;;10.42;71.17
53754;BME280;39667;52.274;20.964;2022-09-17T06:14:31;99033.98;;;10.47;71.07
53754;BME280;39667;52.274;20.964;2022-09-17T06:16:58;99037.66;;;10.53;70.88
53754;BME280;39667;52.274;20.964;2022-09-17T06:19:26;99034.30;;;10.59;70.86
53754;BME280;39667;52.274;20.964;2022-09-17T06:21:54;99035.48;;;10.68;70.87
53754;BME280;39667;52.274;20.964;2022-09-17T06:24:20;99033.98;;;10.70;70.60
53754;BME280;39667;52.274;20.964;2022-09-17T06:26:47;99034.40;;;10.74;70.54
53754;BME280;39667;52.274;20.964;2022-09-17T06:29:14;99036.74;;;10.78;70.32
53754;BME280;39667;52.274;20.964;2022-09-17T06:31:41;99031.84;;;10.76;70.13
53754;BME280;39667;52.274;20.964;2022-09-17T06:34:11;99033.40;;;10.77;70.12
53754;BME280;39667;52.274;20.964;2022-09-17T06:36:38;99030.11;;;10.81;70.09
53754;BME280;39667;52.274;20.964;2022-09-17T06:39:05;99031.09;;;10.84;70.04
53754;BME280;39667;52.274;20.964;2022-09-17T06:41:32;99023.70;;;10.83;69.84
53754;BME280;39667;52.274;20.964;2022-09-17T06:44:00;99020.90;;;10.83;69.85
53754;BME280;39667;52.274;20.964;2022-09-17T06:46:27;99018.39;;;10.84;69.91
53754;BME280;39667;52.274;20.964;2022-09-17T06:48:54;99020.45;;;10.86;69.94
53754;BME280;39667;52.274;20.964;2022-09-17T06:51:21;99021.05;;;10.89;69.87
53754;BME280;39667;52.274;20.964;2022-09-17T06:53:49;99016.15;;;10.94;69.91
53754;BME280;39667;52.274;20.964;2022-09-17T06:56:15;99019.05;;;11.02;69.92
53754;BME280;39667;52.274;20.964;2022-09-17T06:58:43;99020.25;;;11.14;69.76
53754;BME280;39667;52.274;20.964;2022-09-17T07:01:11;99021.35;;;11.23;69.57
53754;BME280;39667;52.274;20.964;2022-09-17T07:03:40;99027.14;;;11.35;69.44
53754;BME280;39667;52.274;20.964;2022-09-17T07:06:09;99030.34;;;11.44;69.21
53754;BME280;39667;52.274;20.964;2022-09-17T07:08:37;99029.98;;;11.44;68.95
53754;BME280;39667;52.274;20.964;2022-09-17T07:11:05;99038.77;;;11.45;68.80
53754;BME280;39667;52.274;20.964;2022-09-17T07:13:32;99038.32;;;11.43;68.74
53754;BME280;39667;52.274;20.964;2022-09-17T07:16:01;99044.73;;;11.41;68.63
53754;BME280;39667;52.274;20.964;2022-09-17T07:18:29;99050.42;;;11.34;68.76
53754;BME280;39667;52.274;20.964;2022-09-17T07:20:58;99050.74;;;11.30;68.97
53754;BME280;39667;52.274;20.964;2022-09-17T07:23:30;99050.63;;;11.28;69.12
53754;BME280;39667;52.274;20.964;2022-09-17T07:25:59;99055.68;;;11.30;69.19
53754;BME280;39667;52.274;20.964;2022-09-17T07:28:27;99053.52;;;11.31;69.30
53754;BME280;39667;52.274;20.964;2022-09-17T07:30:55;99062.52;;;11.31;69.22
53754;BME280;39667;52.274;20.964;2022-09-17T07:33:25;99066.89;;;11.32;69.43
53754;BME280;39667;52.274;20.964;2022-09-17T07:38:21;99071.78;;;11.33;69.52
53754;BME280;39667;52.274;20.964;2022-09-17T07:40:56;99073.78;;;11.36;69.67
53754;BME280;39667;52.274;20.964;2022-09-17T07:43:32;99075.11;;;11.44;69.82
53754;BME280;39667;52.274;20.964;2022-09-17T07:46:01;99075.20;;;11.47;69.54
53754;BME280;39667;52.274;20.964;2022-09-17T07:48:29;99081.27;;;11.39;69.51
53754;BME280;39667;52.274;20.964;2022-09-17T07:50:56;99080.10;;;11.37;69.73
53754;BME280;39667;52.274;20.964;2022-09-17T07:53:23;99081.33;;;11.32;69.76
53754;BME280;39667;52.274;20.964;2022-09-17T07:55:52;99071.79;;;11.27;69.87
53754;BME280;39667;52.274;20.964;2022-09-17T07:58:21;99078.73;;;11.25;70.04
53754;BME280;39667;52.274;20.964;2022-09-17T08:00:48;99073.98;;;11.25;70.09
53754;BME280;39667;52.274;20.964;2022-09-17T08:03:15;99082.12;;;11.24;70.23
53754;BME280;39667;52.274;20.964;2022-09-17T08:05:42;99086.27;;;11.21;70.34
53754;BME280;39667;52.274;20.964;2022-09-17T08:08:09;99087.02;;;11.20;70.55
53754;BME280;39667;52.274;20.964;2022-09-17T08:10:36;99090.23;;;11.19;70.63
53754;BME280;39667;52.274;20.964;2022-09-17T08:13:02;99091.84;;;11.12;70.69
53754;BME280;39667;52.274;20.964;2022-09-17T08:15:29;99085.40;;;11.10;71.13
53754;BME280;39667;52.274;20.964;2022-09-17T08:17:56;99083.45;;;11.15;71.21
53754;BME280;39667;52.274;20.964;2022-09-17T08:20:23;99083.33;;;11.25;70.97
53754;BME280;39667;52.274;20.964;2022-09-17T08:22:59;99085.27;;;11.30;70.84
53754;BME280;39667;52.274;20.964;2022-09-17T08:25:26;99082.08;;;11.31;70.78
53754;BME280;39667;52.274;20.964;2022-09-17T08:27:56;99085.42;;;11.31;70.86
53754;BME280;39667;52.274;20.964;2022-09-17T08:30:23;99087.15;;;11.32;70.82
53754;BME280;39667;52.274;20.964;2022-09-17T08:32:49;99090.80;;;11.28;70.90
53754;BME280;39667;52.274;20.964;2022-09-17T08:35:16;99101.65;;;11.25;71.08
53754;BME280;39667;52.274;20.964;2022-09-17T08:37:43;99104.03;;;11.28;71.11
53754;BME280;39667;52.274;20.964;2022-09-17T08:40:16;99109.05;;;11.31;71.25
53754;BME280;39667;52.274;20.964;2022-09-17T08:42:58;99114.34;;;11.30;71.03
53754;BME280;39667;52.274;20.964;2022-09-17T08:45:28;99118.55;;;11.36;71.15
53754;BME280;39667;52.274;20.964;2022-09-17T08:48:01;99117.74;;;11.45;71.04
53754;BME280;39667;52.274;20.964;2022-09-17T08:50:33;99120.88;;;11.57;70.91
53754;BME280;39667;52.274;20.964;2022-09-17T08:53:19;99121.86;;;11.70;70.54
53754;BME280;39667;52.274;20.964;2022-09-17T08:56:09;99110.46;;;11.83;70.29
53754;BME280;39667;52.274;20.964;2022-09-17T08:58:58;99108.14;;;12.00;70.02
53754;BME280;39667;52.274;20.964;2022-09-17T09:01:44;99105.38;;;12.08;69.56
53754;BME280;39667;52.274;20.964;2022-09-17T09:06:57;99105.92;;;12.08;69.25
53754;BME280;39667;52.274;20.964;2022-09-17T09:09:29;99102.65;;;12.05;69.02
53754;BME280;39667;52.274;20.964;2022-09-17T09:12:15;99102.73;;;12.08;69.03
53754;BME280;39667;52.274;20.964;2022-09-17T09:14:55;99101.09;;;12.10;68.87
53754;BME280;39667;52.274;20.964;2022-09-17T09:17:28;99100.94;;;12.19;68.94
53754;BME280;39667;52.274;20.964;2022-09-17T09:19:58;99105.08;;;12.27;68.59
53754;BME280;39667;52.274;20.964;2022-09-17T09:25:18;99105.52;;;12.24;68.44
53754;BME280;39667;52.274;20.964;2022-09-17T09:28:12;99103.46;;;12.28;68.49
53754;BME280;39667;52.274;20.964;2022-09-17T09:30:51;99110.02;;;12.27;68.28
53754;BME280;39667;52.274;20.964;2022-09-17T09:33:31;99112.94;;;12.24;68.22
53754;BME280;39667;52.274;20.964;2022-09-17T09:35:58;99111.09;;;12.22;68.09
53754;BME280;39667;52.274;20.964;2022-09-17T09:38:32;99112.39;;;12.20;68.22
53754;BME280;39667;52.274;20.964;2022-09-17T09:43:40;99101.15;;;12.23;69.05
53754;BME280;39667;52.274;20.964;2022-09-17T09:57:49;99114.58;;;12.13;68.98
53754;BME280;39667;52.274;20.964;2022-09-17T10:00:44;99116.09;;;11.99;69.71
53754;BME280;39667;52.274;20.964;2022-09-17T10:03:31;99112.02;;;11.89;70.43
53754;BME280;39667;52.274;20.964;2022-09-17T10:06:07;99114.30;;;11.95;71.05
53754;BME280;39667;52.274;20.964;2022-09-17T10:08:41;99108.20;;;11.98;71.52
53754;BME280;39667;52.274;20.964;2022-09-17T10:11:29;99110.34;;;12.08;71.68
53754;BME280;39667;52.274;20.964;2022-09-17T10:14:24;99108.47;;;12.16;71.68
53754;BME280;39667;52.274;20.964;2022-09-17T10:19:38;99109.94;;;12.29;71.81
53754;BME280;39667;52.274;20.964;2022-09-17T10:22:35;99122.13;;;12.33;72.36
53754;BME280;39667;52.274;20.964;2022-09-17T10:25:27;99121.30;;;12.27;72.05
53754;BME280;39667;52.274;20.964;2022-09-17T10:27:56;99121.65;;;12.28;72.36
53754;BME280;39667;52.274;20.964;2022-09-17T10:30:24;99127.45;;;12.33;72.58
53754;BME280;39667;52.274;20.964;2022-09-17T10:33:23;99126.33;;;12.40;72.11
53754;BME280;39667;52.274;20.964;2022-09-17T10:38:35;99132.12;;;12.46;71.56
53754;BME280;39667;52.274;20.964;2022-09-17T10:41:12;99127.09;;;12.76;71.43
53754;BME280;39667;52.274;20.964;2022-09-17T10:43:39;99117.97;;;13.15;70.83
53754;BME280;39667;52.274;20.964;2022-09-17T10:46:09;99120.21;;;13.21;69.28
53754;BME280;39667;52.274;20.964;2022-09-17T10:51:36;99136.16;;;13.16;68.80
53754;BME280;39667;52.274;20.964;2022-09-17T10:54:33;99141.23;;;13.12;68.56
53754;BME280;39667;52.274;20.964;2022-09-17T10:57:11;99146.48;;;13.00;68.25
53754;BME280;39667;52.274;20.964;2022-09-17T11:08:09;99158.05;;;12.79;68.71
53754;BME280;39667;52.274;20.964;2022-09-17T11:10:48;99155.14;;;12.82;68.94
53754;BME280;39667;52.274;20.964;2022-09-17T11:21:47;99132.66;;;13.42;67.50
53754;BME280;39667;52.274;20.964;2022-09-17T11:24:36;99131.98;;;13.45;67.29
53754;BME280;39667;52.274;20.964;2022-09-17T11:27:45;99130.48;;;13.56;66.85
53754;BME280;39667;52.274;20.964;2022-09-17T11:30:20;99127.49;;;13.73;66.57
53754;BME280;39667;52.274;20.964;2022-09-17T11:33:16;99114.80;;;14.13;66.32
53754;BME280;39667;52.274;20.964;2022-09-17T11:35:51;99121.99;;;14.39;64.64
53754;BME280;39667;52.274;20.964;2022-09-17T11:38:36;99124.75;;;14.48;63.88
53754;BME280;39667;52.274;20.964;2022-09-17T11:41:18;99120.08;;;14.42;63.75
53754;BME280;39667;52.274;20.964;2022-09-17T11:44:13;99117.24;;;14.62;63.56
53754;BME280;39667;52.274;20.964;2022-09-17T11:46:46;99112.49;;;14.92;62.98
53754;BME280;39667;52.274;20.964;2022-09-17T11:49:27;99109.82;;;15.08;63.11
53754;BME280;39667;52.274;20.964;2022-09-17T11:51:59;99114.29;;;15.18;62.48
53754;BME280;39667;52.274;20.964;2022-09-17T11:57:28;99102.85;;;14.90;60.99
53754;BME280;39667;52.274;20.964;2022-09-17T12:00:04;99110.21;;;14.60;61.70
53754;BME280;39667;52.274;20.964;2022-09-17T12:05:28;99116.06;;;14.25;62.56
53754;BME280;39667;52.274;20.964;2022-09-17T12:08:18;99115.25;;;14.12;62.75
53754;BME280;39667;52.274;20.964;2022-09-17T12:14:08;99121.00;;;13.80;63.31
53754;BME280;39667;52.274;20.964;2022-09-17T12:16:42;99122.15;;;13.70;63.82
53754;BME280;39667;52.274;20.964;2022-09-17T12:19:21;99122.05;;;13.64;63.76
53754;BME280;39667;52.274;20.964;2022-09-17T12:22:13;99113.95;;;13.54;63.84
53754;BME280;39667;52.274;20.964;2022-09-17T12:24:43;99113.98;;;13.49;64.17
53754;BME280;39667;52.274;20.964;2022-09-17T12:27:16;99113.39;;;13.50;64.58
53754;BME280;39667;52.274;20.964;2022-09-17T12:30:07;99118.28;;;13.57;64.36
53754;BME280;39667;52.274;20.964;2022-09-17T12:33:18;99122.25;;;13.55;64.17
53754;BME280;39667;52.274;20.964;2022-09-17T12:35:51;99120.19;;;13.53;63.91
53754;BME280;39667;52.274;20.964;2022-09-17T12:39:00;99126.08;;;13.56;64.49
53754;BME280;39667;52.274;20.964;2022-09-17T12:41:40;99128.20;;;13.65;64.45
53754;BME280;39667;52.274;20.964;2022-09-17T12:50:44;99133.61;;;13.58;64.70
53754;BME280;39667;52.274;20.964;2022-09-17T13:03:55;99108.08;;;13.64;65.31
53754;BME280;39667;52.274;20.964;2022-09-17T13:06:40;99110.07;;;13.67;65.31
53754;BME280;39667;52.274;20.964;2022-09-17T13:14:53;99106.60;;;13.65;65.21
53754;BME280;39667;52.274;20.964;2022-09-17T13:17:38;99113.81;;;13.71;65.31
53754;BME280;39667;52.274;20.964;2022-09-17T13:20:14;99119.98;;;13.71;65.08
53754;BME280;39667;52.274;20.964;2022-09-17T13:22:51;99116.31;;;13.66;64.90
53754;BME280;39667;52.274;20.964;2022-09-17T13:25:20;99119.19;;;13.65;64.91
53754;BME280;39667;52.274;20.964;2022-09-17T13:27:49;99117.84;;;13.63;64.86
53754;BME280;39667;52.274;20.964;2022-09-17T13:30:18;99116.63;;;13.67;65.04
53754;BME280;39667;52.274;20.964;2022-09-17T13:32:50;99115.79;;;13.66;64.95
53754;BME280;39667;52.274;20.964;2022-09-17T13:42:54;99114.77;;;13.52;64.84
53754;BME280;39667;52.274;20.964;2022-09-17T13:45:23;99115.02;;;13.50;64.86
53754;BME280;39667;52.274;20.964;2022-09-17T13:47:51;99113.09;;;13.45;65.06
53754;BME280;39667;52.274;20.964;2022-09-17T13:50:40;99117.20;;;13.44;65.20
53754;BME280;39667;52.274;20.964;2022-09-17T14:00:59;99111.61;;;13.46;65.70
53754;BME280;39667;52.274;20.964;2022-09-17T14:13:51;99094.27;;;13.46;66.05
53754;BME280;39667;52.274;20.964;2022-09-17T14:19:33;99093.20;;;13.64;66.10
53754;BME280;39667;52.274;20.964;2022-09-17T14:22:24;99091.31;;;13.71;65.81
53754;BME280;39667;52.274;20.964;2022-09-17T14:24:53;99092.36;;;13.76;65.80
53754;BME280;39667;52.274;20.964;2022-09-17T14:30:30;99094.56;;;13.90;65.68
53754;BME280;39667;52.274;20.964;2022-09-17T14:35:39;99095.57;;;14.04;65.41
53754;BME280;39667;52.274;20.964;2022-09-17T14:38:23;99096.14;;;14.03;65.40
53754;BME280;39667;52.274;20.964;2022-09-17T14:41:00;99092.92;;;14.00;65.25
53754;BME280;39667;52.274;20.964;2022-09-17T14:46:02;99097.14;;;13.84;65.32
53754;BME280;39667;52.274;20.964;2022-09-17T14:48:34;99096.14;;;13.78;65.56
53754;BME280;39667;52.274;20.964;2022-09-17T14:53:45;99093.42;;;13.84;65.30
53754;BME280;39667;52.274;20.964;2022-09-17T14:56:16;99096.27;;;13.83;65.10
53754;BME280;39667;52.274;20.964;2022-09-17T14:58:51;99100.09;;;13.81;65.01
53754;BME280;39667;52.274;20.964;2022-09-17T15:01:23;99104.33;;;13.77;65.15
53754;BME280;39667;52.274;20.964;2022-09-17T15:04:14;99103.17;;;13.75;65.35
53754;BME280;39667;52.274;20.964;2022-09-17T15:06:46;99109.27;;;13.74;65.45
53754;BME280;39667;52.274;20.964;2022-09-17T15:09:24;99108.84;;;13.71;65.56
53754;BME280;39667;52.274;20.964;2022-09-17T15:11:55;99107.42;;;13.71;65.55
53754;BME280;39667;52.274;20.964;2022-09-17T15:14:28;99103.61;;;13.69;65.54
53754;BME280;39667;52.274;20.964;2022-09-17T15:16:57;99095.07;;;13.67;65.71
53754;BME280;39667;52.274;20.964;2022-09-17T15:19:39;99098.27;;;13.61;65.65
53754;BME280;39667;52.274;20.964;2022-09-17T15:22:21;99100.00;;;13.58;65.78
53754;BME280;39667;52.274;20.964;2022-09-17T15:24:56;99100.98;;;13.51;65.87
53754;BME280;39667;52.274;20.964;2022-09-17T15:27:35;99093.41;;;13.46;66.08
53754;BME280;39667;52.274;20.964;2022-09-17T15:30:05;99096.88;;;13.43;66.21
53754;BME280;39667;52.274;20.964;2022-09-17T15:32:35;99100.67;;;13.41;66.01
53754;BME280;39667;52.274;20.964;2022-09-17T15:37:43;99095.39;;;13.36;66.24
53754;BME280;39667;52.274;20.964;2022-09-17T15:43:24;99088.81;;;13.33;66.41
53754;BME280;39667;52.274;20.964;2022-09-17T15:45:53;99094.02;;;13.31;66.60
53754;BME280;39667;52.274;20.964;2022-09-17T15:50:55;99106.70;;;13.36;66.80
53754;BME280;39667;52.274;20.964;2022-09-17T15:53:32;99104.09;;;13.40;66.70
53754;BME280;39667;52.274;20.964;2022-09-17T15:58:30;99095.20;;;13.50;66.87
53754;BME280;39667;52.274;20.964;2022-09-17T16:08:59;99114.71;;;13.48;66.97
53754;BME280;39667;52.274;20.964;2022-09-17T16:11:29;99120.75;;;13.43;66.93
53754;BME280;39667;52.274;20.964;2022-09-17T16:13:58;99123.31;;;13.36;66.94
53754;BME280;39667;52.274;20.964;2022-09-17T16:16:32;99121.00;;;13.33;67.24